15:38
Airports
History
Links
Donate
Help keep this website running!
PayPal
Bitcoin
This page is community maintained. The information is intended for PC simulator navigation or reference.
Always use approved charts for navigation.
RKJM
MOKPO
MOKPO (RKJM)
Yeongam-gun, Jeollanam-do, Korea, Republic of (526)
(C)
Lat/Lng:34° 45' 32.05" N / 126° 22' 47.54" E
34.758904 / 126.379871
Elevation:23'ft / 7mMSL
ID / ICAO:RKJM
Runways:1
Longest:(06-24) 1,593.2m / 5,227ft Asphalt
Controlled:Yes
Distance To
Airport ID:
Airport Radio Frequencies
ATIS: 129.25
Tower: 118.15, 118.7
Approach: 130
Departure: 130
Nearby VORs <50NM
Nearby NDBs
Nearby WeatherUpdated 12-06-16 14:00 GMT
Nearby weather at RKJJ, GWANGJU located 35.1 nautical miles from RKJM
Altimeter: 30.27
Visibility: 6.2 statute miles
Wind: 3 knots (180°)
Temp: -3°c 27°f
Humidity: 86.0%

METAR: RKJJ 061400Z 18003KT CAVOK M03/M05 Q1025 NOSIG

(Powered by phpweather)
Runway 06 / 24
Dimensions:1593.2 x 29.9m 5227' x 98'ft
Surface:Asphalt
Edge Lights:High intensity
Runway 06 [A]Runway 24 [B]
Heading:050°TH 230°TH
Lat:
Lng:
34° 45' 15.56"N
126° 22' 23.47"E
34° 45' 48.55"N
126° 23' 11.6"E
ALS:MALS
TDZ:Yes, lighted
User Notes and Comments
Google Map
Nearby Airports
(C) GWANGJU 35.1 NM
RKJJ (WX) NE 43°
4 G 712 38.4 NM
RK60 N
4 G 710 54.2 NM
RK6D NE 41°
(C) YEOSU 70.4 NM
RKJY (WX) E 85°
(C) KUNSAN AB 80.2 NM
RKJK (WX) N
(C) JEJU INTL 86.6 NM
RKPC (WX) S 175°
(U) JEON JU 87.9 NM
RKJU NNE 28°
VFR Chart
Flight Planning at SkyVector.com